sensor_id;sensor_type;location;lat;lon;timestamp;pressure;altitude;pressure_sealevel;temperature;humidity
49841;BME280;35738;49.890;5.930;2022-10-18T00:02:21;96567.16;;;14.07;100.00
49841;BME280;35738;49.890;5.930;2022-10-18T00:04:48;96587.63;;;14.15;100.00
49841;BME280;35738;49.890;5.930;2022-10-18T00:07:15;96607.63;;;14.20;100.00
49841;BME280;35738;49.890;5.930;2022-10-18T00:09:41;96621.72;;;14.27;100.00
49841;BME280;35738;49.890;5.930;2022-10-18T00:12:08;96618.88;;;14.15;100.00
49841;BME280;35738;49.890;5.930;2022-10-18T00:14:35;96615.78;;;14.17;100.00
49841;BME280;35738;49.890;5.930;2022-10-18T00:17:01;96612.38;;;14.11;100.00
49841;BME280;35738;49.890;5.930;2022-10-18T00:19:28;96617.75;;;14.08;100.00
49841;BME280;35738;49.890;5.930;2022-10-18T00:21:55;96616.59;;;14.09;100.00
49841;BME280;35738;49.890;5.930;2022-10-18T00:24:21;96618.88;;;14.15;100.00
49841;BME280;35738;49.890;5.930;2022-10-18T00:26:48;96625.09;;;14.12;100.00
49841;BME280;35738;49.890;5.930;2022-10-18T00:29:15;96627.47;;;14.22;100.00
49841;BME280;35738;49.890;5.930;2022-10-18T00:31:42;96624.56;;;14.19;100.00
49841;BME280;35738;49.890;5.930;2022-10-18T00:34:12;96623.59;;;14.15;100.00
49841;BME280;35738;49.890;5.930;2022-10-18T00:36:39;96622.78;;;14.14;100.00
49841;BME280;35738;49.890;5.930;2022-10-18T00:39:08;96629.56;;;14.25;100.00
49841;BME280;35738;49.890;5.930;2022-10-18T00:41:36;96642.44;;;14.21;100.00
49841;BME280;35738;49.890;5.930;2022-10-18T00:44:55;96656.94;;;14.18;100.00
49841;BME280;35738;49.890;5.930;2022-10-18T00:46:55;96645.56;;;14.11;100.00
49841;BME280;35738;49.890;5.930;2022-10-18T00:49:32;96651.41;;;14.18;100.00
49841;BME280;35738;49.890;5.930;2022-10-18T00:52:06;96647.50;;;14.19;100.00
49841;BME280;35738;49.890;5.930;2022-10-18T00:54:38;96644.91;;;14.14;100.00
49841;BME280;35738;49.890;5.930;2022-10-18T00:57:06;96645.72;;;14.15;100.00
49841;BME280;35738;49.890;5.930;2022-10-18T00:59:33;96654.38;;;14.13;100.00
49841;BME280;35738;49.890;5.930;2022-10-18T01:02:00;96657.75;;;14.19;100.00
49841;BME280;35738;49.890;5.930;2022-10-18T01:04:27;96665.72;;;14.20;100.00
49841;BME280;35738;49.890;5.930;2022-10-18T01:23:12;96640.03;;;14.11;100.00
49841;BME280;35738;49.890;5.930;2022-10-18T01:25:36;96634.50;;;14.11;100.00
49841;BME280;35738;49.890;5.930;2022-10-18T01:28:26;96634.34;;;14.08;100.00
49841;BME280;35738;49.890;5.930;2022-10-18T01:31:02;96641.50;;;14.09;100.00
49841;BME280;35738;49.890;5.930;2022-10-18T01:33:39;96634.19;;;14.04;100.00
49841;BME280;35738;49.890;5.930;2022-10-18T01:38:51;96626.25;;;14.03;100.00
49841;BME280;35738;49.890;5.930;2022-10-18T01:41:21;96628.47;;;14.09;100.00
49841;BME280;35738;49.890;5.930;2022-10-18T01:43:59;96634.50;;;14.11;100.00
49841;BME280;35738;49.890;5.930;2022-10-18T01:46:27;96626.88;;;14.08;100.00
49841;BME280;35738;49.890;5.930;2022-10-18T01:48:55;96625.22;;;14.16;100.00
49841;BME280;35738;49.890;5.930;2022-10-18T01:51:27;96621.78;;;14.19;100.00
49841;BME280;35738;49.890;5.930;2022-10-18T01:53:55;96622.75;;;14.23;100.00
49841;BME280;35738;49.890;5.930;2022-10-18T01:59:32;96623.88;;;14.22;100.00
49841;BME280;35738;49.890;5.930;2022-10-18T02:02:08;96613.69;;;14.05;100.00
49841;BME280;35738;49.890;5.930;2022-10-18T02:04:59;96608.78;;;14.11;100.00
49841;BME280;35738;49.890;5.930;2022-10-18T02:07:50;96622.78;;;14.14;100.00
49841;BME280;35738;49.890;5.930;2022-10-18T02:10:53;96623.59;;;14.15;100.00
49841;BME280;35738;49.890;5.930;2022-10-18T02:13:22;96625.22;;;14.16;100.00
49841;BME280;35738;49.890;5.930;2022-10-18T02:15:55;96617.72;;;14.16;100.00
49841;BME280;35738;49.890;5.930;2022-10-18T02:18:28;96620.50;;;14.16;100.00
49841;BME280;35738;49.890;5.930;2022-10-18T02:20:57;96621.81;;;14.10;100.00
49841;BME280;35738;49.890;5.930;2022-10-18T02:23:26;96619.91;;;14.02;100.00
49841;BME280;35738;49.890;5.930;2022-10-18T02:25:52;96608.50;;;14.04;100.00
49841;BME280;35738;49.890;5.930;2022-10-18T02:28:20;96607.88;;;13.98;100.00
49841;BME280;35738;49.890;5.930;2022-10-18T02:31:09;96604.78;;;13.99;100.00
49841;BME280;35738;49.890;5.930;2022-10-18T02:33:51;96608.16;;;14.05;100.00
49841;BME280;35738;49.890;5.930;2022-10-18T02:36:26;96611.41;;;14.07;100.00
49841;BME280;35738;49.890;5.930;2022-10-18T02:38:59;96618.75;;;14.03;100.00
49841;BME280;35738;49.890;5.930;2022-10-18T02:41:29;96611.56;;;14.11;100.00
49841;BME280;35738;49.890;5.930;2022-10-18T02:43:56;96604.94;;;14.03;100.00
49841;BME280;35738;49.890;5.930;2022-10-18T02:46:23;96612.41;;;14.03;100.00
49841;BME280;35738;49.890;5.930;2022-10-18T02:48:49;96619.22;;;14.05;100.00
49841;BME280;35738;49.890;5.930;2022-10-18T02:51:16;96610.59;;;14.07;100.00
49841;BME280;35738;49.890;5.930;2022-10-18T02:53:43;96609.13;;;14.09;100.00
49841;BME280;35738;49.890;5.930;2022-10-18T02:56:10;96617.91;;;14.11;100.00
49841;BME280;35738;49.890;5.930;2022-10-18T02:58:37;96610.56;;;14.15;100.00
49841;BME280;35738;49.890;5.930;2022-10-18T03:01:03;96608.16;;;14.14;100.00
49841;BME280;35738;49.890;5.930;2022-10-18T03:03:30;96616.78;;;14.12;100.00
49841;BME280;35738;49.890;5.930;2022-10-18T03:05:57;96613.03;;;14.08;100.00
49841;BME280;35738;49.890;5.930;2022-10-18T03:08:23;96621.66;;;14.07;100.00
49841;BME280;35738;49.890;5.930;2022-10-18T03:10:50;96621.34;;;14.08;100.00
49841;BME280;35738;49.890;5.930;2022-10-18T03:13:17;96619.56;;;14.04;100.00
49841;BME280;35738;49.890;5.930;2022-10-18T03:15:44;96627.06;;;14.03;100.00
49841;BME280;35738;49.890;5.930;2022-10-18T03:18:11;96627.06;;;14.03;100.00
49841;BME280;35738;49.890;5.930;2022-10-18T03:20:38;96626.19;;;14.11;100.00
49841;BME280;35738;49.890;5.930;2022-10-18T03:23:05;96618.75;;;14.03;100.00
49841;BME280;35738;49.890;5.930;2022-10-18T03:25:32;96624.75;;;14.05;100.00
49841;BME280;35738;49.890;5.930;2022-10-18T03:28:00;96625.63;;;13.97;100.00
49841;BME280;35738;49.890;5.930;2022-10-18T03:30:26;96631.16;;;13.97;100.00
49841;BME280;35738;49.890;5.930;2022-10-18T03:32:53;96635.56;;;13.89;100.00
49841;BME280;35738;49.890;5.930;2022-10-18T03:35:20;96640.47;;;13.84;100.00
49841;BME280;35738;49.890;5.930;2022-10-18T03:37:47;96645.19;;;13.83;100.00
49841;BME280;35738;49.890;5.930;2022-10-18T03:40:13;96636.91;;;13.83;100.00
49841;BME280;35738;49.890;5.930;2022-10-18T03:42:40;96633.47;;;13.86;100.00
49841;BME280;35738;49.890;5.930;2022-10-18T03:45:07;96635.09;;;13.87;100.00
49841;BME280;35738;49.890;5.930;2022-10-18T03:47:34;96631.03;;;13.85;100.00
49841;BME280;35738;49.890;5.930;2022-10-18T03:50:00;96634.94;;;13.84;100.00
49841;BME280;35738;49.890;5.930;2022-10-18T03:52:27;96627.50;;;13.76;100.00
49841;BME280;35738;49.890;5.930;2022-10-18T03:54:54;96627.56;;;13.58;100.00
49841;BME280;35738;49.890;5.930;2022-10-18T03:57:20;96643.03;;;13.59;100.00
49841;BME280;35738;49.890;5.930;2022-10-18T03:59:47;96639.59;;;13.62;100.00
49841;BME280;35738;49.890;5.930;2022-10-18T04:02:14;96629.66;;;13.70;100.00
49841;BME280;35738;49.890;5.930;2022-10-18T04:04:40;96634.72;;;13.59;100.00
49841;BME280;35738;49.890;5.930;2022-10-18T04:07:07;96638.78;;;13.62;100.00
49841;BME280;35738;49.890;5.930;2022-10-18T04:09:34;96641.50;;;13.71;100.00
49841;BME280;35738;49.890;5.930;2022-10-18T04:12:00;96644.28;;;13.71;100.00
49841;BME280;35738;49.890;5.930;2022-10-18T04:14:27;96650.13;;;13.69;100.00
49841;BME280;35738;49.890;5.930;2022-10-18T04:16:53;96653.72;;;13.70;100.00
49841;BME280;35738;49.890;5.930;2022-10-18T04:19:20;96652.91;;;13.69;100.00
49841;BME280;35738;49.890;5.930;2022-10-18T04:21:46;96649.19;;;13.65;100.00
49841;BME280;35738;49.890;5.930;2022-10-18T04:24:15;96640.72;;;13.61;100.00
49841;BME280;35738;49.890;5.930;2022-10-18T04:26:42;96646.75;;;13.63;100.00
49841;BME280;35738;49.890;5.930;2022-10-18T04:29:09;96630.22;;;13.46;100.00
49841;BME280;35738;49.890;5.930;2022-10-18T04:31:35;96638.19;;;13.48;100.00
49841;BME280;35738;49.890;5.930;2022-10-18T04:34:02;96630.41;;;13.41;100.00
49841;BME280;35738;49.890;5.930;2022-10-18T04:36:30;96635.44;;;13.39;100.00
49841;BME280;35738;49.890;5.930;2022-10-18T04:38:56;96632.34;;;13.32;100.00
49841;BME280;35738;49.890;5.930;2022-10-18T04:41:23;96629.25;;;13.42;100.00
49841;BME280;35738;49.890;5.930;2022-10-18T04:43:50;96634.94;;;13.46;100.00
49841;BME280;35738;49.890;5.930;2022-10-18T04:46:16;96645.31;;;13.49;100.00
49841;BME280;35738;49.890;5.930;2022-10-18T04:48:43;96640.28;;;13.51;100.00
49841;BME280;35738;49.890;5.930;2022-10-18T04:51:09;96659.47;;;13.47;100.00
49841;BME280;35738;49.890;5.930;2022-10-18T04:53:36;96657.84;;;13.46;100.00
49841;BME280;35738;49.890;5.930;2022-10-18T04:56:03;96663.19;;;13.51;100.00
49841;BME280;35738;49.890;5.930;2022-10-18T04:58:29;96683.38;;;13.43;100.00
49841;BME280;35738;49.890;5.930;2022-10-18T05:00:56;96673.94;;;13.44;100.00
49841;BME280;35738;49.890;5.930;2022-10-18T05:03:22;96658.81;;;13.50;100.00
49841;BME280;35738;49.890;5.930;2022-10-18T05:05:50;96652.00;;;13.48;100.00
49841;BME280;35738;49.890;5.930;2022-10-18T05:08:34;96647.13;;;13.45;100.00
49841;BME280;35738;49.890;5.930;2022-10-18T05:11:01;96649.41;;;13.34;100.00
49841;BME280;35738;49.890;5.930;2022-10-18T05:13:29;96639.81;;;13.31;100.00
49841;BME280;35738;49.890;5.930;2022-10-18T05:15:55;96653.47;;;13.45;100.00
49841;BME280;35738;49.890;5.930;2022-10-18T05:18:25;96663.69;;;13.53;100.00
49841;BME280;35738;49.890;5.930;2022-10-18T05:20:52;96671.66;;;13.55;100.00
49841;BME280;35738;49.890;5.930;2022-10-18T05:23:19;96670.84;;;13.54;100.00
49841;BME280;35738;49.890;5.930;2022-10-18T05:25:45;96670.84;;;13.54;100.00
49841;BME280;35738;49.890;5.930;2022-10-18T05:28:12;96689.53;;;13.57;100.00
49841;BME280;35738;49.890;5.930;2022-10-18T05:31:00;96684.66;;;13.54;100.00
49841;BME280;35738;49.890;5.930;2022-10-18T05:33:28;96690.50;;;13.53;100.00
49841;BME280;35738;49.890;5.930;2022-10-18T05:35:54;96684.66;;;13.54;100.00
49841;BME280;35738;49.890;5.930;2022-10-18T05:38:21;96692.94;;;13.54;100.00
49841;BME280;35738;49.890;5.930;2022-10-18T05:40:48;96687.09;;;13.56;100.00
49841;BME280;35738;49.890;5.930;2022-10-18T05:43:15;96692.94;;;13.54;100.00
49841;BME280;35738;49.890;5.930;2022-10-18T05:45:47;96684.31;;;13.56;100.00
49841;BME280;35738;49.890;5.930;2022-10-18T05:48:14;96684.81;;;13.58;100.00
49841;BME280;35738;49.890;5.930;2022-10-18T05:50:41;96685.13;;;13.56;100.00
49841;BME280;35738;49.890;5.930;2022-10-18T05:53:08;96681.56;;;13.56;100.00
49841;BME280;35738;49.890;5.930;2022-10-18T05:55:49;96690.19;;;13.54;100.00
49841;BME280;35738;49.890;5.930;2022-10-18T05:58:16;96692.78;;;13.51;100.00
49841;BME280;35738;49.890;5.930;2022-10-18T06:00:43;96696.84;;;13.53;100.00
49841;BME280;35738;49.890;5.930;2022-10-18T06:03:09;96698.28;;;13.59;100.00
49841;BME280;35738;49.890;5.930;2022-10-18T06:05:36;96702.19;;;13.58;100.00
49841;BME280;35738;49.890;5.930;2022-10-18T06:08:05;96695.84;;;13.58;100.00
49841;BME280;35738;49.890;5.930;2022-10-18T06:10:38;96698.94;;;13.56;100.00
49841;BME280;35738;49.890;5.930;2022-10-18T06:13:05;96709.69;;;13.58;100.00
49841;BME280;35738;49.890;5.930;2022-10-18T06:15:32;96701.72;;;13.56;100.00
49841;BME280;35738;49.890;5.930;2022-10-18T06:17:58;96704.97;;;13.58;100.00
49841;BME280;35738;49.890;5.930;2022-10-18T06:20:25;96707.56;;;13.63;100.00
49841;BME280;35738;49.890;5.930;2022-10-18T06:22:52;96699.75;;;13.65;100.00
49841;BME280;35738;49.890;5.930;2022-10-18T06:25:19;96710.13;;;13.68;100.00
49841;BME280;35738;49.890;5.930;2022-10-18T06:27:45;96704.44;;;13.74;100.00
49841;BME280;35738;49.890;5.930;2022-10-18T06:30:12;96707.19;;;13.74;100.00
49841;BME280;35738;49.890;5.930;2022-10-18T06:32:38;96709.97;;;13.74;100.00
49841;BME280;35738;49.890;5.930;2022-10-18T06:35:05;96718.25;;;13.74;100.00
49841;BME280;35738;49.890;5.930;2022-10-18T06:37:32;96710.44;;;13.76;100.00
49841;BME280;35738;49.890;5.930;2022-10-18T06:40:01;96730.78;;;13.71;100.00
49841;BME280;35738;49.890;5.930;2022-10-18T06:42:28;96728.50;;;13.73;100.00
49841;BME280;35738;49.890;5.930;2022-10-18T06:44:54;96725.41;;;13.75;100.00
49841;BME280;35738;49.890;5.930;2022-10-18T06:47:21;96729.31;;;13.74;100.00
49841;BME280;35738;49.890;5.930;2022-10-18T06:49:48;96728.97;;;13.75;100.00
49841;BME280;35738;49.890;5.930;2022-10-18T06:52:17;96739.72;;;13.77;100.00
49841;BME280;35738;49.890;5.930;2022-10-18T06:54:46;96742.63;;;13.80;100.00
49841;BME280;35738;49.890;5.930;2022-10-18T06:57:12;96741.66;;;13.85;100.00
49841;BME280;35738;49.890;5.930;2022-10-18T06:59:39;96744.09;;;13.86;100.00
49841;BME280;35738;49.890;5.930;2022-10-18T07:02:06;96746.38;;;13.84;100.00
49841;BME280;35738;49.890;5.930;2022-10-18T07:04:32;96749.13;;;13.84;100.00
49841;BME280;35738;49.890;5.930;2022-10-18T07:06:59;96751.09;;;13.84;100.00
49841;BME280;35738;49.890;5.930;2022-10-18T07:09:25;96762.28;;;13.87;100.00
49841;BME280;35738;49.890;5.930;2022-10-18T07:11:52;96763.47;;;13.78;100.00
49841;BME280;35738;49.890;5.930;2022-10-18T07:14:19;96767.19;;;13.82;100.00
49841;BME280;35738;49.890;5.930;2022-10-18T07:16:45;96762.31;;;13.79;100.00
49841;BME280;35738;49.890;5.930;2022-10-18T07:19:12;96762.31;;;13.79;100.00
49841;BME280;35738;49.890;5.930;2022-10-18T07:21:40;96756.31;;;13.77;100.00
49841;BME280;35738;49.890;5.930;2022-10-18T07:24:06;96761.84;;;13.77;100.00
49841;BME280;35738;49.890;5.930;2022-10-18T07:26:33;96760.38;;;13.71;100.00
49841;BME280;35738;49.890;5.930;2022-10-18T07:29:05;96768.50;;;13.76;100.00
49841;BME280;35738;49.890;5.930;2022-10-18T07:31:32;96769.66;;;13.75;100.00
49841;BME280;35738;49.890;5.930;2022-10-18T07:33:59;96777.91;;;13.83;100.00
49841;BME280;35738;49.890;5.930;2022-10-18T07:36:26;96778.06;;;13.87;100.00
49841;BME280;35738;49.890;5.930;2022-10-18T07:38:53;96781.81;;;13.82;100.00
49841;BME280;35738;49.890;5.930;2022-10-18T07:41:20;96769.47;;;13.80;100.00
49841;BME280;35738;49.890;5.930;2022-10-18T07:43:49;96772.25;;;13.80;100.00
49841;BME280;35738;49.890;5.930;2022-10-18T07:46:17;96776.63;;;13.72;100.00
49841;BME280;35738;49.890;5.930;2022-10-18T07:48:44;96778.72;;;13.84;100.00
49841;BME280;35738;49.890;5.930;2022-10-18T07:51:12;96779.41;;;13.72;100.00
49841;BME280;35738;49.890;5.930;2022-10-18T07:53:38;96780.34;;;13.85;100.00
49841;BME280;35738;49.890;5.930;2022-10-18T07:56:07;96783.25;;;13.97;100.00
49841;BME280;35738;49.890;5.930;2022-10-18T07:58:36;96790.94;;;13.83;100.00
49841;BME280;35738;49.890;5.930;2022-10-18T08:01:04;96787.31;;;13.99;100.00
49841;BME280;35738;49.890;5.930;2022-10-18T08:03:32;96788.75;;;14.23;100.00
49841;BME280;35738;49.890;5.930;2022-10-18T08:05:59;96788.25;;;14.21;100.00
49841;BME280;35738;49.890;5.930;2022-10-18T08:08:26;96797.78;;;14.41;100.00
49841;BME280;35738;49.890;5.930;2022-10-18T08:10:52;96794.91;;;14.28;100.00
49841;BME280;35738;49.890;5.930;2022-10-18T08:13:20;96799.13;;;14.35;100.00
49841;BME280;35738;49.890;5.930;2022-10-18T08:15:46;96795.81;;;14.41;100.00
49841;BME280;35738;49.890;5.930;2022-10-18T08:18:13;96803.19;;;14.28;100.00
49841;BME280;35738;49.890;5.930;2022-10-18T08:20:44;96808.22;;;14.44;100.00
49841;BME280;35738;49.890;5.930;2022-10-18T08:23:11;96801.41;;;14.32;100.00
49841;BME280;35738;49.890;5.930;2022-10-18T08:25:38;96803.09;;;14.63;100.00
49841;BME280;35738;49.890;5.930;2022-10-18T08:28:05;96805.16;;;15.04;100.00
49841;BME280;35738;49.890;5.930;2022-10-18T08:30:33;96812.06;;;15.19;100.00
49841;BME280;35738;49.890;5.930;2022-10-18T08:33:00;96808.22;;;15.32;100.00
49841;BME280;35738;49.890;5.930;2022-10-18T08:35:27;96808.81;;;14.96;100.00
49841;BME280;35738;49.890;5.930;2022-10-18T08:37:54;96814.56;;;14.82;100.00
49841;BME280;35738;49.890;5.930;2022-10-18T08:40:20;96819.75;;;14.84;100.00
49841;BME280;35738;49.890;5.930;2022-10-18T08:43:02;96812.94;;;14.81;100.00
49841;BME280;35738;49.890;5.930;2022-10-18T08:45:35;96820.81;;;14.71;100.00
49841;BME280;35738;49.890;5.930;2022-10-18T08:48:18;96825.72;;;14.65;100.00
49841;BME280;35738;49.890;5.930;2022-10-18T08:50:48;96827.09;;;14.50;100.00
49841;BME280;35738;49.890;5.930;2022-10-18T08:53:42;96823.97;;;14.52;100.00
49841;BME280;35738;49.890;5.930;2022-10-18T08:56:11;96828.53;;;14.56;100.00
49841;BME280;35738;49.890;5.930;2022-10-18T08:58:42;96822.84;;;14.53;100.00
49841;BME280;35738;49.890;5.930;2022-10-18T09:01:24;96819.22;;;14.61;100.00
49841;BME280;35738;49.890;5.930;2022-10-18T09:12:54;96829.34;;;14.95;100.00
49841;BME280;35738;49.890;5.930;2022-10-18T09:21:22;96833.59;;;14.92;100.00
49841;BME280;35738;49.890;5.930;2022-10-18T09:24:01;96835.31;;;14.68;100.00
49841;BME280;35738;49.890;5.930;2022-10-18T09:26:38;96831.63;;;14.55;100.00
49841;BME280;35738;49.890;5.930;2022-10-18T09:29:24;96835.53;;;14.54;100.00
49841;BME280;35738;49.890;5.930;2022-10-18T09:34:55;96840.13;;;14.88;100.00
49841;BME280;35738;49.890;5.930;2022-10-18T09:37:21;96835.09;;;14.81;100.00
49841;BME280;35738;49.890;5.930;2022-10-18T09:39:50;96838.13;;;14.59;100.00
49841;BME280;35738;49.890;5.930;2022-10-18T09:42:25;96834.94;;;14.86;100.00
49841;BME280;35738;49.890;5.930;2022-10-18T09:44:58;96842.53;;;14.98;100.00
49841;BME280;35738;49.890;5.930;2022-10-18T09:47:33;96835.84;;;14.99;100.00
49841;BME280;35738;49.890;5.930;2022-10-18T09:50:05;96831.81;;;14.88;100.00
49841;BME280;35738;49.890;5.930;2022-10-18T09:52:45;96831.84;;;14.79;100.00
49841;BME280;35738;49.890;5.930;2022-10-18T09:55:26;96838.59;;;14.61;100.00
49841;BME280;35738;49.890;5.930;2022-10-18T09:57:59;96840.66;;;14.73;100.00
49841;BME280;35738;49.890;5.930;2022-10-18T10:00:30;96838.38;;;14.75;100.00
49841;BME280;35738;49.890;5.930;2022-10-18T10:03:00;96838.66;;;14.90;100.00
49841;BME280;35738;49.890;5.930;2022-10-18T10:05:27;96834.34;;;15.02;100.00
49841;BME280;35738;49.890;5.930;2022-10-18T10:07:58;96838.34;;;15.13;100.00
49841;BME280;35738;49.890;5.930;2022-10-18T10:10:27;96833.97;;;15.12;100.00
49841;BME280;35738;49.890;5.930;2022-10-18T10:13:13;96837.00;;;15.19;100.00
49841;BME280;35738;49.890;5.930;2022-10-18T10:15:59;96843.31;;;15.28;100.00
49841;BME280;35738;49.890;5.930;2022-10-18T10:18:30;96857.50;;;15.26;100.00
49841;BME280;35738;49.890;5.930;2022-10-18T10:20:58;96858.59;;;15.34;100.00
49841;BME280;35738;49.890;5.930;2022-10-18T10:23:30;96858.41;;;15.39;100.00
49841;BME280;35738;49.890;5.930;2022-10-18T10:26:19;96864.75;;;15.69;100.00
49841;BME280;35738;49.890;5.930;2022-10-18T10:28:46;96857.78;;;15.34;100.00
49841;BME280;35738;49.890;5.930;2022-10-18T10:36:51;96868.81;;;15.72;100.00
49841;BME280;35738;49.890;5.930;2022-10-18T10:39:20;96870.28;;;15.90;100.00
49841;BME280;35738;49.890;5.930;2022-10-18T10:41:52;96879.91;;;15.93;100.00
49841;BME280;35738;49.890;5.930;2022-10-18T10:44:21;96875.38;;;15.88;100.00
49841;BME280;35738;49.890;5.930;2022-10-18T10:46:50;96875.25;;;15.55;100.00
49841;BME280;35738;49.890;5.930;2022-10-18T10:49:20;96882.34;;;15.73;100.00
49841;BME280;35738;49.890;5.930;2022-10-18T10:52:17;96884.91;;;15.78;100.00
49841;BME280;35738;49.890;5.930;2022-10-18T10:55:00;96876.03;;;15.85;100.00
49841;BME280;35738;49.890;5.930;2022-10-18T10:57:49;96886.41;;;15.76;100.00
49841;BME280;35738;49.890;5.930;2022-10-18T11:00:36;96885.47;;;15.72;100.00
49841;BME280;35738;49.890;5.930;2022-10-18T11:03:15;96888.91;;;15.69;100.00
49841;BME280;35738;49.890;5.930;2022-10-18T11:05:55;96887.47;;;15.83;100.00
49841;BME280;35738;49.890;5.930;2022-10-18T11:08:26;96885.72;;;16.00;100.00
49841;BME280;35738;49.890;5.930;2022-10-18T11:13:51;96890.63;;;16.36;99.83
49841;BME280;35738;49.890;5.930;2022-10-18T11:17:09;96885.31;;;16.43;98.48
49841;BME280;35738;49.890;5.930;2022-10-18T11:25:24;96885.63;;;16.08;95.29
49841;BME280;35738;49.890;5.930;2022-10-18T11:42:51;96888.50;;;16.33;95.43
49841;BME280;35738;49.890;5.930;2022-10-18T11:50:49;96874.78;;;17.06;91.68
49841;BME280;35738;49.890;5.930;2022-10-18T12:06:35;96859.91;;;17.87;82.56
49841;BME280;35738;49.890;5.930;2022-10-18T12:09:10;96863.00;;;17.98;81.17
49841;BME280;35738;49.890;5.930;2022-10-18T12:11:46;96857.03;;;17.59;84.74
49841;BME280;35738;49.890;5.930;2022-10-18T12:14:56;96847.19;;;17.62;86.22
49841;BME280;35738;49.890;5.930;2022-10-18T12:17:35;96844.38;;;17.09;89.01
49841;BME280;35738;49.890;5.930;2022-10-18T12:20:17;96848.84;;;16.90;89.84
49841;BME280;35738;49.890;5.930;2022-10-18T12:22:50;96851.41;;;16.37;91.98
49841;BME280;35738;49.890;5.930;2022-10-18T12:25:21;96850.25;;;16.38;90.70
49841;BME280;35738;49.890;5.930;2022-10-18T12:27:53;96846.13;;;16.24;94.96
49841;BME280;35738;49.890;5.930;2022-10-18T12:33:01;96846.19;;;16.03;95.80
49841;BME280;35738;49.890;5.930;2022-10-18T12:38:29;96833.63;;;16.17;96.60
49841;BME280;35738;49.890;5.930;2022-10-18T12:40:57;96833.34;;;15.98;95.21
49841;BME280;35738;49.890;5.930;2022-10-18T12:43:27;96838.16;;;15.89;96.39
49841;BME280;35738;49.890;5.930;2022-10-18T12:46:05;96831.06;;;16.12;94.86
49841;BME280;35738;49.890;5.930;2022-10-18T12:48:41;96833.28;;;16.19;93.79
49841;BME280;35738;49.890;5.930;2022-10-18T12:51:22;96836.91;;;16.32;92.26
49841;BME280;35738;49.890;5.930;2022-10-18T12:56:38;96839.66;;;16.65;86.47
49841;BME280;35738;49.890;5.930;2022-10-18T13:14:54;96823.47;;;16.21;89.38
49841;BME280;35738;49.890;5.930;2022-10-18T13:17:51;96827.22;;;16.05;91.31
49841;BME280;35738;49.890;5.930;2022-10-18T13:31:43;96827.25;;;16.50;92.95
49841;BME280;35738;49.890;5.930;2022-10-18T13:39:34;96827.59;;;16.48;91.06
49841;BME280;35738;49.890;5.930;2022-10-18T14:06:37;96840.81;;;16.18;95.06
49841;BME280;35738;49.890;5.930;2022-10-18T14:09:13;96836.72;;;16.04;94.08
49841;BME280;35738;49.890;5.930;2022-10-18T14:14:56;96837.84;;;16.03;92.91
49841;BME280;35738;49.890;5.930;2022-10-18T14:25:26;96834.09;;;16.19;92.24
49841;BME280;35738;49.890;5.930;2022-10-18T14:28:25;96838.41;;;16.29;92.19
49841;BME280;35738;49.890;5.930;2022-10-18T14:31:15;96837.13;;;16.27;91.77
49841;BME280;35738;49.890;5.930;2022-10-18T14:33:46;96831.88;;;16.46;91.43
49841;BME280;35738;49.890;5.930;2022-10-18T14:36:25;96827.34;;;16.41;91.40
49841;BME280;35738;49.890;5.930;2022-10-18T14:38:55;96831.66;;;16.51;93.02
49841;BME280;35738;49.890;5.930;2022-10-18T14:41:30;96816.84;;;16.47;91.79
49841;BME280;35738;49.890;5.930;2022-10-18T14:46:49;96824.25;;;16.55;93.28
49841;BME280;35738;49.890;5.930;2022-10-18T14:49:17;96818.13;;;16.62;91.64
49841;BME280;35738;49.890;5.930;2022-10-18T14:51:48;96821.19;;;16.81;91.87
49841;BME280;35738;49.890;5.930;2022-10-18T14:54:18;96830.75;;;16.59;91.30
49841;BME280;35738;49.890;5.930;2022-10-18T14:56:48;96822.19;;;16.64;90.82
49841;BME280;35738;49.890;5.930;2022-10-18T14:59:18;96832.34;;;16.60;90.20
49841;BME280;35738;49.890;5.930;2022-10-18T15:01:58;96831.63;;;16.39;92.86
49841;BME280;35738;49.890;5.930;2022-10-18T15:04:27;96822.56;;;16.30;94.88
49841;BME280;35738;49.890;5.930;2022-10-18T15:07:04;96834.53;;;16.09;96.55
49841;BME280;35738;49.890;5.930;2022-10-18T15:09:33;96826.41;;;16.04;96.18
49841;BME280;35738;49.890;5.930;2022-10-18T15:12:04;96827.06;;;16.22;96.07
49841;BME280;35738;49.890;5.930;2022-10-18T15:14:33;96829.34;;;16.20;95.37
49841;BME280;35738;49.890;5.930;2022-10-18T15:17:28;96818.31;;;15.99;95.91
49841;BME280;35738;49.890;5.930;2022-10-18T15:20:01;96810.41;;;15.89;96.48
49841;BME280;35738;49.890;5.930;2022-10-18T15:22:32;96819.34;;;15.95;97.80
49841;BME280;35738;49.890;5.930;2022-10-18T15:27:37;96821.97;;;15.91;97.04
49841;BME280;35738;49.890;5.930;2022-10-18T15:30:06;96826.84;;;15.94;97.69
49841;BME280;35738;49.890;5.930;2022-10-18T15:32:33;96827.47;;;15.79;96.50
49841;BME280;35738;49.890;5.930;2022-10-18T15:35:12;96824.84;;;15.82;96.93
49841;BME280;35738;49.890;5.930;2022-10-18T15:37:44;96822.41;;;15.81;96.34
49841;BME280;35738;49.890;5.930;2022-10-18T15:40:16;96825.25;;;15.72;96.02
49841;BME280;35738;49.890;5.930;2022-10-18T15:42:44;96823.84;;;15.66;96.73
49841;BME280;35738;49.890;5.930;2022-10-18T15:45:44;96819.97;;;15.58;98.30
49841;BME280;35738;49.890;5.930;2022-10-18T15:55:48;96818.84;;;15.30;99.79
49841;BME280;35738;49.890;5.930;2022-10-18T15:58:24;96820.19;;;15.24;100.00
49841;BME280;35738;49.890;5.930;2022-10-18T16:00:55;96816.13;;;15.21;100.00
49841;BME280;35738;49.890;5.930;2022-10-18T16:03:23;96815.19;;;15.17;100.00
49841;BME280;35738;49.890;5.930;2022-10-18T16:06:05;96809.44;;;15.22;100.00
49841;BME280;35738;49.890;5.930;2022-10-18T16:08:36;96805.66;;;15.27;100.00
49841;BME280;35738;49.890;5.930;2022-10-18T16:11:23;96809.38;;;15.31;99.10